createdAt,value
2022-08-03T00:02:16.904Z,98904.91
2022-08-03T00:04:43.969Z,98904.34
2022-08-03T00:07:10.725Z,98904.22
2022-08-03T00:09:37.563Z,98907.56
2022-08-03T00:12:04.676Z,98895.59
2022-08-03T00:14:31.559Z,98900.53
2022-08-03T00:16:58.286Z,98894.03
2022-08-03T00:19:25.037Z,98897.94
2022-08-03T00:21:52.922Z,98905.06
2022-08-03T00:24:20.045Z,98901.00
2022-08-03T00:26:47.142Z,98901.94
2022-08-03T00:29:13.854Z,98901.72
2022-08-03T00:31:52.183Z,98907.53
2022-08-03T00:34:34.600Z,98908.88
2022-08-03T00:37:06.552Z,98900.06
2022-08-03T00:39:33.268Z,98902.13
2022-08-03T00:42:04.392Z,98902.00
2022-08-03T00:44:39.650Z,98897.09
2022-08-03T00:47:07.040Z,98897.69
2022-08-03T00:49:34.182Z,98897.19
2022-08-03T00:52:01.748Z,98901.81
2022-08-03T00:54:40.283Z,98893.94
2022-08-03T00:57:08.253Z,98901.56
2022-08-03T00:59:35.122Z,98893.94
2022-08-03T01:02:02.252Z,98901.63
2022-08-03T01:04:28.877Z,98903.94
2022-08-03T01:07:17.352Z,98897.41
2022-08-03T01:10:06.565Z,98894.75
2022-08-03T01:12:44.229Z,98893.94
2022-08-03T01:15:28.920Z,98887.63
2022-08-03T01:18:15.624Z,98890.75
2022-08-03T01:20:48.490Z,98892.88
2022-08-03T01:23:23.634Z,98893.63
2022-08-03T01:26:41.114Z,98898.59
2022-08-03T01:29:52.365Z,98890.66
2022-08-03T01:32:59.421Z,98893.22
2022-08-03T01:35:39.211Z,98892.63
2022-08-03T01:38:18.650Z,98889.00
2022-08-03T01:40:47.629Z,98891.13
2022-08-03T01:44:01.255Z,98884.03
2022-08-03T01:46:06.800Z,98893.78
2022-08-03T01:48:36.736Z,98886.69
2022-08-03T01:51:03.852Z,98887.22
2022-08-03T01:53:33.616Z,98883.94
2022-08-03T01:56:02.178Z,98877.63
2022-08-03T01:58:30.873Z,98878.44
2022-08-03T02:01:00.969Z,98882.56
2022-08-03T02:03:29.731Z,98876.50
2022-08-03T02:06:18.138Z,98880.84
2022-08-03T02:08:46.848Z,98868.97
2022-08-03T02:11:13.713Z,98870.13
2022-08-03T02:13:41.476Z,98876.09
2022-08-03T02:16:09.178Z,98873.22
2022-08-03T02:18:39.476Z,98878.13
2022-08-03T02:21:11.062Z,98877.69
2022-08-03T02:23:38.725Z,98876.34
2022-08-03T02:26:09.635Z,98876.97
2022-08-03T02:28:40.705Z,98870.16
2022-08-03T02:31:14.783Z,98871.78
2022-08-03T02:33:45.955Z,98873.19
2022-08-03T02:36:15.931Z,98869.84
2022-08-03T02:38:49.693Z,98866.88
2022-08-03T02:41:22.820Z,98863.16
2022-08-03T02:44:05.869Z,98878.44
2022-08-03T02:46:38.893Z,98862.31
2022-08-03T02:49:41.076Z,98862.56
2022-08-03T02:51:55.895Z,98864.03
2022-08-03T02:54:25.004Z,98860.44
2022-08-03T02:56:54.179Z,98872.53
2022-08-03T02:59:22.151Z,98863.63
2022-08-03T03:01:49.600Z,98860.44
2022-08-03T03:04:17.119Z,98873.38
2022-08-03T03:06:44.480Z,98861.81
2022-08-03T03:09:15.080Z,98859.16
2022-08-03T03:11:44.099Z,98855.22
2022-08-03T03:14:12.995Z,98861.25
2022-08-03T03:16:42.060Z,98852.25
2022-08-03T03:19:10.108Z,98859.47
2022-08-03T03:21:37.420Z,98855.97
2022-08-03T03:24:06.397Z,98859.91
2022-08-03T03:26:35.352Z,98860.44
2022-08-03T03:29:03.556Z,98862.13
2022-08-03T03:31:30.437Z,98860.97
2022-08-03T03:34:00.288Z,98869.13
2022-08-03T03:36:27.061Z,98863.38
2022-08-03T03:38:53.924Z,98868.38
2022-08-03T03:41:20.761Z,98863.38
2022-08-03T03:43:49.528Z,98867.78
2022-08-03T03:46:18.299Z,98866.28
2022-08-03T03:48:45.235Z,98860.72
2022-08-03T03:51:12.795Z,98862.97
2022-08-03T03:53:39.592Z,98863.38
2022-08-03T03:56:06.399Z,98861.84
2022-08-03T03:58:33.360Z,98859.34
2022-08-03T04:01:01.178Z,98864.25
2022-08-03T04:03:28.105Z,98857.19
2022-08-03T04:06:13.463Z,98863.56
2022-08-03T04:08:59.092Z,98862.28
2022-08-03T04:11:54.379Z,98857.91
2022-08-03T04:14:29.649Z,98857.50
2022-08-03T04:17:03.612Z,98862.75
2022-08-03T04:19:45.624Z,98857.31
2022-08-03T04:22:18.183Z,98869.88
2022-08-03T04:24:52.090Z,98862.53
2022-08-03T04:27:23.353Z,98863.59
2022-08-03T04:29:53.215Z,98854.41
2022-08-03T04:32:23.490Z,98860.13
2022-08-03T04:34:50.173Z,98867.09
2022-08-03T04:37:43.314Z,98860.50
2022-08-03T04:40:16.301Z,98858.72
2022-08-03T04:42:49.367Z,98863.94
2022-08-03T04:45:17.486Z,98864.66
2022-08-03T04:47:44.462Z,98871.78
2022-08-03T04:50:13.506Z,98871.56
2022-08-03T04:52:42.072Z,98870.41
2022-08-03T04:55:09.222Z,98869.56
2022-08-03T04:57:35.950Z,98874.63
2022-08-03T05:00:04.638Z,98875.84
2022-08-03T05:02:32.139Z,98869.13
2022-08-03T05:04:59.353Z,98877.63
2022-08-03T05:07:26.065Z,98876.22
2022-08-03T05:10:15.147Z,98883.31
2022-08-03T05:12:44.258Z,98887.00
2022-08-03T05:15:11.246Z,98885.91
2022-08-03T05:17:37.891Z,98886.97
2022-08-03T05:20:05.534Z,98887.91
2022-08-03T05:22:32.226Z,98881.84
2022-08-03T05:24:58.956Z,98885.13
2022-08-03T05:27:26.414Z,98885.91
2022-08-03T05:29:53.098Z,98895.81
2022-08-03T05:32:20.010Z,98895.31
2022-08-03T05:34:46.799Z,98895.06
2022-08-03T05:37:13.730Z,98894.50
2022-08-03T05:39:40.428Z,98890.38
2022-08-03T05:42:07.199Z,98890.59
2022-08-03T05:44:33.902Z,98886.63
2022-08-03T05:47:06.700Z,98891.09
2022-08-03T05:49:33.483Z,98890.00
2022-08-03T05:52:13.369Z,98892.16
2022-08-03T05:54:56.961Z,98894.19
2022-08-03T05:57:25.886Z,98905.28
2022-08-03T05:59:57.837Z,98899.81
2022-08-03T06:02:26.920Z,98898.25
2022-08-03T06:04:54.330Z,98906.72
2022-08-03T06:07:21.060Z,98893.84
2022-08-03T06:10:36.897Z,98904.50
2022-08-03T06:12:37.141Z,98895.91
2022-08-03T06:15:05.121Z,98907.88
2022-08-03T06:17:37.191Z,98901.72
2022-08-03T06:20:06.085Z,98914.78
2022-08-03T06:22:32.745Z,98904.63
2022-08-03T06:25:04.052Z,98906.13
2022-08-03T06:27:36.647Z,98905.06
2022-08-03T06:30:05.306Z,98909.97
2022-08-03T06:32:32.129Z,98906.66
2022-08-03T06:34:59.142Z,98903.81
2022-08-03T06:37:27.056Z,98910.97
2022-08-03T06:39:54.283Z,98909.06
2022-08-03T06:42:21.327Z,98908.34
2022-08-03T06:44:49.918Z,98913.25
2022-08-03T06:47:17.112Z,98905.09
2022-08-03T06:49:43.887Z,98910.34
2022-08-03T06:52:38.170Z,98912.66
2022-08-03T06:55:06.357Z,98917.38
2022-08-03T06:57:33.023Z,98909.31
2022-08-03T07:00:10.995Z,98914.13
2022-08-03T07:02:42.488Z,98914.94
2022-08-03T07:05:10.424Z,98923.22
2022-08-03T07:07:38.029Z,98921.94
2022-08-03T07:10:06.697Z,98924.06
2022-08-03T07:12:35.270Z,98914.41
2022-08-03T07:15:03.715Z,98918.31
2022-08-03T07:17:33.352Z,98924.31
2022-08-03T07:20:02.073Z,98921.81
2022-08-03T07:22:28.863Z,98923.44
2022-08-03T07:24:56.911Z,98917.38
2022-08-03T07:27:23.703Z,98918.88
2022-08-03T07:29:50.768Z,98929.28
2022-08-03T07:32:19.181Z,98926.56
2022-08-03T07:34:46.157Z,98928.19
2022-08-03T07:37:19.012Z,98927.94
2022-08-03T07:39:45.770Z,98921.94
2022-08-03T07:42:12.710Z,98918.34
2022-08-03T07:44:40.425Z,98929.84
2022-08-03T07:47:07.305Z,98922.19
2022-08-03T07:49:41.010Z,98922.13
2022-08-03T07:52:26.525Z,98924.75
2022-08-03T07:54:55.363Z,98926.53
2022-08-03T07:57:22.035Z,98925.31
2022-08-03T08:00:01.413Z,98929.53
2022-08-03T08:02:29.176Z,98920.28
2022-08-03T08:04:55.836Z,98927.50
2022-08-03T08:07:26.155Z,98928.78
2022-08-03T08:09:52.880Z,98911.22
2022-08-03T08:12:19.832Z,98924.16
2022-08-03T08:14:46.777Z,98919.50
2022-08-03T08:17:14.274Z,98919.81
2022-08-03T08:19:47.515Z,98909.84
2022-08-03T08:22:23.500Z,98912.22
2022-08-03T08:24:59.290Z,98911.63
2022-08-03T08:27:26.183Z,98907.56
2022-08-03T08:29:55.304Z,98905.34
2022-08-03T08:32:24.270Z,98903.19
2022-08-03T08:34:50.963Z,98904.75
2022-08-03T08:37:17.738Z,98909.19
2022-08-03T08:39:44.383Z,98908.03
2022-08-03T08:42:11.121Z,98895.41
2022-08-03T08:44:37.750Z,98900.66
2022-08-03T08:47:04.714Z,98903.88
2022-08-03T08:49:32.723Z,98902.63
2022-08-03T08:52:01.674Z,98887.13
2022-08-03T08:54:29.705Z,98888.31
2022-08-03T08:57:02.194Z,98896.91
2022-08-03T08:59:47.967Z,98889.84
2022-08-03T09:02:17.092Z,98889.81
2022-08-03T09:04:45.496Z,98885.88
2022-08-03T09:07:20.030Z,98890.91
2022-08-03T09:10:10.592Z,98885.38
2022-08-03T09:12:53.400Z,98889.50
2022-08-03T09:15:24.958Z,98885.03
2022-08-03T09:17:56.310Z,98885.31
2022-08-03T09:20:25.068Z,98884.59
2022-08-03T09:23:01.574Z,98879.00
2022-08-03T09:25:40.508Z,98875.84
2022-08-03T09:28:52.579Z,98888.34
2022-08-03T09:31:02.494Z,98883.53
2022-08-03T09:33:36.050Z,98868.25
2022-08-03T09:36:03.053Z,98867.44
2022-08-03T09:38:30.101Z,98886.34
2022-08-03T09:41:00.313Z,98880.53
2022-08-03T09:43:28.533Z,98881.25
2022-08-03T09:46:07.179Z,98882.59
2022-08-03T09:48:35.391Z,98876.34
2022-08-03T09:51:13.123Z,98873.13
2022-08-03T09:53:58.867Z,98864.97
2022-08-03T09:56:47.371Z,98864.25
2022-08-03T09:59:28.505Z,98863.69
2022-08-03T10:01:58.003Z,98867.72
2022-08-03T10:04:25.083Z,98864.00
2022-08-03T10:07:10.894Z,98858.91
2022-08-03T10:09:38.184Z,98858.06
2022-08-03T10:12:13.191Z,98863.69
2022-08-03T10:14:45.252Z,98851.34
2022-08-03T10:17:12.490Z,98837.22
2022-08-03T10:19:40.955Z,98846.28
2022-08-03T10:22:14.361Z,98849.91
2022-08-03T10:24:54.059Z,98844.31
2022-08-03T10:27:23.907Z,98845.88
2022-08-03T10:29:55.745Z,98835.34
2022-08-03T10:32:31.460Z,98849.56
2022-08-03T10:35:29.468Z,98840.94
2022-08-03T10:38:07.567Z,98834.97
2022-08-03T10:40:52.611Z,98835.50
2022-08-03T10:43:28.871Z,98833.97
2022-08-03T10:45:56.680Z,98832.38
2022-08-03T10:48:23.986Z,98826.09
2022-08-03T10:50:51.093Z,98831.81
2022-08-03T10:53:38.776Z,98818.13
2022-08-03T10:56:35.674Z,98818.75
2022-08-03T10:59:11.763Z,98822.72
2022-08-03T11:01:59.893Z,98815.50
2022-08-03T11:04:29.718Z,98813.19
2022-08-03T11:07:15.514Z,98809.38
2022-08-03T11:09:44.957Z,98811.19
2022-08-03T11:12:31.263Z,98803.38
2022-08-03T11:15:05.935Z,98806.00
2022-08-03T11:17:46.238Z,98814.31
2022-08-03T11:20:47.088Z,98810.41
2022-08-03T11:23:16.125Z,98810.16
2022-08-03T11:26:11.608Z,98801.31
2022-08-03T11:28:39.860Z,98796.81
2022-08-03T11:31:48.814Z,98794.13
2022-08-03T11:34:14.366Z,98801.47
2022-08-03T11:37:21.441Z,98802.44
2022-08-03T11:39:54.546Z,98798.19
2022-08-03T11:42:24.227Z,98802.28
2022-08-03T11:44:53.514Z,98786.59
2022-08-03T11:47:22.197Z,98799.38
2022-08-03T11:49:51.177Z,98793.69
2022-08-03T11:52:19.398Z,98795.06
2022-08-03T11:54:57.101Z,98804.13
2022-08-03T11:59:17.516Z,98797.81
2022-08-03T12:00:32.268Z,98801.09
2022-08-03T12:03:09.421Z,98806.59
2022-08-03T12:05:52.319Z,98790.34
2022-08-03T12:08:33.216Z,98784.69
2022-08-03T12:11:05.554Z,98788.13
2022-08-03T12:14:45.593Z,98778.75
2022-08-03T12:16:37.604Z,98775.47
2022-08-03T12:19:06.787Z,98776.97
2022-08-03T12:21:34.563Z,98771.84
2022-08-03T12:24:04.514Z,98782.25
2022-08-03T12:26:58.323Z,98779.66
2022-08-03T12:29:27.232Z,98774.53
2022-08-03T12:31:56.041Z,98771.09
2022-08-03T12:34:23.151Z,98766.97
2022-08-03T12:36:59.071Z,98770.00
2022-08-03T12:39:31.011Z,98761.78
2022-08-03T12:41:59.301Z,98760.47
2022-08-03T12:44:35.450Z,98757.50
2022-08-03T12:47:06.537Z,98750.88
2022-08-03T12:49:48.636Z,98761.47
2022-08-03T12:52:17.209Z,98769.78
2022-08-03T12:54:59.168Z,98757.59
2022-08-03T12:57:26.193Z,98766.31
2022-08-03T12:59:55.759Z,98762.78
2022-08-03T13:02:25.807Z,98763.66
2022-08-03T13:04:54.766Z,98755.84
2022-08-03T13:07:22.768Z,98758.19
2022-08-03T13:09:53.073Z,98756.31
2022-08-03T13:12:22.832Z,98748.34
2022-08-03T13:15:00.319Z,98761.94
2022-08-03T13:17:28.081Z,98761.81
2022-08-03T13:19:54.936Z,98756.19
2022-08-03T13:22:26.011Z,98754.72
2022-08-03T13:24:58.313Z,98742.31
2022-08-03T13:28:03.952Z,98752.13
2022-08-03T13:30:13.652Z,98745.53
2022-08-03T13:32:45.233Z,98740.03
2022-08-03T13:35:12.538Z,98746.13
2022-08-03T13:37:43.462Z,98746.56
2022-08-03T13:40:15.566Z,98736.72
2022-08-03T13:42:42.293Z,98738.28
2022-08-03T13:45:10.415Z,98730.03
2022-08-03T13:47:37.729Z,98738.81
2022-08-03T13:50:05.049Z,98734.34
2022-08-03T13:52:34.153Z,98731.09
2022-08-03T13:55:03.562Z,98727.41
2022-08-03T13:58:11.350Z,98716.56
2022-08-03T14:00:27.775Z,98722.31
2022-08-03T14:03:09.136Z,98706.34
2022-08-03T14:05:40.727Z,98717.06
2022-08-03T14:08:08.109Z,98709.56
2022-08-03T14:10:37.504Z,98720.22
2022-08-03T14:13:05.792Z,98719.03
2022-08-03T14:15:38.172Z,98712.84
2022-08-03T14:18:15.406Z,98703.16
2022-08-03T14:20:50.180Z,98704.13
2022-08-03T14:23:19.174Z,98705.59
2022-08-03T14:25:52.052Z,98706.69
2022-08-03T14:28:24.549Z,98698.88
2022-08-03T14:30:52.925Z,98705.03
2022-08-03T14:33:20.323Z,98699.72
2022-08-03T14:35:47.450Z,98702.16
2022-08-03T14:38:14.411Z,98695.53
2022-08-03T14:40:41.398Z,98691.84
2022-08-03T14:43:08.065Z,98694.38
2022-08-03T14:45:34.718Z,98692.28
2022-08-03T14:50:24.524Z,98693.69
2022-08-03T14:50:51.781Z,98692.16
2022-08-03T14:53:19.587Z,98693.53
2022-08-03T14:55:50.983Z,98684.78
2022-08-03T14:58:21.278Z,98677.97
2022-08-03T15:00:49.238Z,98668.09
2022-08-03T15:03:16.782Z,98677.63
2022-08-03T15:05:44.427Z,98675.94
2022-08-03T15:08:11.330Z,98671.44
2022-08-03T15:10:40.540Z,98666.13
2022-08-03T15:13:10.753Z,98656.66
2022-08-03T15:15:37.388Z,98656.75
2022-08-03T15:18:04.316Z,98668.19
2022-08-03T15:20:42.994Z,98658.81
2022-08-03T15:23:11.256Z,98655.53
2022-08-03T15:26:32.398Z,98659.22
2022-08-03T15:28:26.629Z,98659.41
2022-08-03T15:30:53.635Z,98659.09
2022-08-03T15:33:20.583Z,98658.56
2022-08-03T15:35:47.532Z,98664.38
2022-08-03T15:38:14.604Z,98646.91
2022-08-03T15:40:41.801Z,98654.97
2022-08-03T15:43:08.560Z,98652.72
2022-08-03T15:45:36.261Z,98649.22
2022-08-03T15:48:06.939Z,98652.94
2022-08-03T15:50:34.484Z,98645.22
2022-08-03T15:53:01.118Z,98645.22
2022-08-03T15:55:27.944Z,98650.63
2022-08-03T15:59:09.240Z,98647.00
2022-08-03T16:00:43.062Z,98650.63
2022-08-03T16:03:10.488Z,98640.25
2022-08-03T16:05:37.173Z,98641.94
2022-08-03T16:08:06.226Z,98637.88
2022-08-03T16:10:34.663Z,98636.19
2022-08-03T16:13:01.406Z,98634.06
2022-08-03T16:15:28.247Z,98630.53
2022-08-03T16:17:54.989Z,98623.56
2022-08-03T16:20:30.896Z,98624.13
2022-08-03T16:23:10.643Z,98633.00
2022-08-03T16:25:44.224Z,98627.38
2022-08-03T16:28:16.897Z,98617.22
2022-08-03T16:30:46.420Z,98624.03
2022-08-03T16:33:16.786Z,98625.47
2022-08-03T16:35:46.186Z,98616.81
2022-08-03T16:38:18.608Z,98620.00
2022-08-03T16:40:47.484Z,98625.16
2022-08-03T16:43:17.992Z,98623.41
2022-08-03T16:45:46.704Z,98626.75
2022-08-03T16:48:14.252Z,98628.28
2022-08-03T16:50:41.414Z,98630.13
2022-08-03T16:53:09.833Z,98632.56
2022-08-03T16:55:51.740Z,98623.19
2022-08-03T16:58:34.233Z,98620.91
2022-08-03T17:01:24.270Z,98624.47
2022-08-03T17:04:03.364Z,98627.97
2022-08-03T17:06:36.506Z,98620.81
2022-08-03T17:09:18.163Z,98629.50
2022-08-03T17:11:47.870Z,98630.28
2022-08-03T17:14:22.473Z,98627.44
2022-08-03T17:16:53.994Z,98628.03
2022-08-03T17:19:23.776Z,98625.72
2022-08-03T17:22:09.503Z,98625.53
2022-08-03T17:24:42.252Z,98630.16
2022-08-03T17:27:23.091Z,98628.34
2022-08-03T17:30:09.927Z,98633.66
2022-08-03T17:32:42.762Z,98622.16
2022-08-03T17:35:20.745Z,98624.28
2022-08-03T17:37:57.929Z,98622.03
2022-08-03T17:40:25.606Z,98622.97
2022-08-03T17:42:52.961Z,98622.59
2022-08-03T17:45:20.580Z,98620.88
2022-08-03T17:47:57.389Z,98626.78
2022-08-03T17:50:35.342Z,98625.63
2022-08-03T17:53:15.363Z,98628.69
2022-08-03T17:56:40.436Z,98627.47
2022-08-03T17:59:50.930Z,98640.78
2022-08-03T18:03:00.873Z,98624.78
2022-08-03T18:06:10.723Z,98635.19
2022-08-03T18:08:43.427Z,98636.03
2022-08-03T18:11:16.103Z,98635.59
2022-08-03T18:14:03.957Z,98631.25
2022-08-03T18:17:00.375Z,98635.44
2022-08-03T18:20:01.328Z,98635.66
2022-08-03T18:22:20.236Z,98639.25
2022-08-03T18:24:49.694Z,98639.75
2022-08-03T18:27:17.042Z,98636.97
2022-08-03T18:29:47.018Z,98636.97
2022-08-03T18:32:17.024Z,98646.69
2022-08-03T18:34:53.422Z,98653.34
2022-08-03T18:37:25.587Z,98644.66
2022-08-03T18:39:58.305Z,98646.81
2022-08-03T18:42:25.845Z,98649.00
2022-08-03T18:44:56.546Z,98643.16
2022-08-03T18:47:52.496Z,98650.41
2022-08-03T18:50:50.624Z,98651.84
2022-08-03T18:54:03.365Z,98651.03
2022-08-03T18:56:52.019Z,98644.28
2022-08-03T18:59:30.883Z,98648.59
2022-08-03T19:02:06.889Z,98658.59
2022-08-03T19:04:47.478Z,98649.97
2022-08-03T19:07:22.254Z,98655.59
2022-08-03T19:10:00.161Z,98651.22
2022-08-03T19:12:51.788Z,98654.00
2022-08-03T19:15:36.078Z,98653.03
2022-08-03T19:18:08.847Z,98666.06
2022-08-03T19:20:37.966Z,98661.81
2022-08-03T19:23:04.725Z,98666.69
2022-08-03T19:25:39.279Z,98675.28
2022-08-03T19:28:07.993Z,98672.56
2022-08-03T19:30:46.209Z,98673.16
2022-08-03T19:33:15.336Z,98675.28
2022-08-03T19:35:55.262Z,98679.25
2022-08-03T19:38:28.755Z,98679.19
2022-08-03T19:41:03.012Z,98678.03
2022-08-03T19:43:53.766Z,98679.59
2022-08-03T19:46:31.617Z,98679.88
2022-08-03T19:49:04.939Z,98677.72
2022-08-03T19:52:01.597Z,98676.94
2022-08-03T19:54:54.106Z,98678.19
2022-08-03T19:57:24.790Z,98676.34
2022-08-03T19:59:54.378Z,98672.78
2022-08-03T20:05:14.762Z,98672.69
2022-08-03T20:07:47.633Z,98677.72
2022-08-03T20:10:18.220Z,98672.63
2022-08-03T20:12:47.153Z,98677.00
2022-08-03T20:15:14.401Z,98674.84
2022-08-03T20:17:56.373Z,98675.59
2022-08-03T20:20:36.509Z,98673.94
2022-08-03T20:23:13.724Z,98679.50
2022-08-03T20:25:57.407Z,98676.00
2022-08-03T20:28:50.612Z,98684.47
2022-08-03T20:31:19.259Z,98671.88
2022-08-03T20:33:49.244Z,98675.47
2022-08-03T20:36:17.987Z,98673.84
2022-08-03T20:38:48.514Z,98670.47
2022-08-03T20:41:18.964Z,98678.38
2022-08-03T20:43:48.267Z,98671.81
2022-08-03T20:46:31.074Z,98665.25
2022-08-03T20:49:06.478Z,98678.50
2022-08-03T20:51:49.543Z,98676.50
2022-08-03T20:54:23.125Z,98677.28
2022-08-03T20:57:00.323Z,98674.41
2022-08-03T20:59:38.496Z,98673.66
2022-08-03T21:05:03.565Z,98665.97
2022-08-03T21:08:05.782Z,98673.13
2022-08-03T21:13:03.417Z,98675.38
2022-08-03T21:13:13.804Z,98660.25
2022-08-03T21:13:33.413Z,98656.88
2022-08-03T21:16:12.455Z,98658.91
2022-08-03T21:18:52.785Z,98659.66
2022-08-03T21:21:22.831Z,98653.44
2022-08-03T21:23:54.848Z,98655.94
2022-08-03T21:26:25.550Z,98649.34
2022-08-03T21:28:54.981Z,98656.75
2022-08-03T21:31:25.705Z,98648.69
2022-08-03T21:34:05.170Z,98650.16
2022-08-03T21:36:35.560Z,98651.75
2022-08-03T21:39:07.027Z,98649.66
2022-08-03T21:41:35.531Z,98657.72
2022-08-03T21:44:04.017Z,98652.19
2022-08-03T21:46:36.731Z,98642.91
2022-08-03T21:50:04.560Z,98651.00
2022-08-03T21:51:59.204Z,98653.47
2022-08-03T21:54:36.489Z,98652.44
2022-08-03T21:57:14.148Z,98651.81
2022-08-03T21:59:51.861Z,98651.91
2022-08-03T22:02:24.237Z,98640.19
2022-08-03T22:04:56.325Z,98649.03
2022-08-03T22:07:35.960Z,98638.13
2022-08-03T22:10:05.885Z,98639.75
2022-08-03T22:12:33.047Z,98641.94
2022-08-03T22:15:02.377Z,98634.19
2022-08-03T22:17:55.916Z,98641.38
2022-08-03T22:20:24.397Z,98652.03
2022-08-03T22:22:56.943Z,98647.59
2022-08-03T22:25:32.260Z,98651.09
2022-08-03T22:28:05.341Z,98646.09
2022-08-03T22:30:33.101Z,98642.78
2022-08-03T22:33:01.417Z,98643.53
2022-08-03T22:35:29.590Z,98647.28
2022-08-03T22:37:58.755Z,98647.72
2022-08-03T22:40:26.781Z,98642.41
2022-08-03T22:42:54.332Z,98648.50
2022-08-03T22:46:08.521Z,98643.88
2022-08-03T22:48:08.458Z,98646.06
2022-08-03T22:50:35.777Z,98648.69
2022-08-03T22:53:03.200Z,98645.13
2022-08-03T22:55:30.042Z,98653.13
2022-08-03T22:57:56.844Z,98648.25
2022-08-03T23:00:24.550Z,98639.63
2022-08-03T23:02:54.218Z,98642.81
2022-08-03T23:06:01.320Z,98646.03
2022-08-03T23:08:15.264Z,98645.47
2022-08-03T23:10:47.228Z,98655.00
2022-08-03T23:13:17.632Z,98654.88
2022-08-03T23:15:56.945Z,98659.81
2022-08-03T23:18:28.735Z,98657.38
2022-08-03T23:20:59.518Z,98659.94
2022-08-03T23:23:29.259Z,98661.16
2022-08-03T23:26:13.407Z,98651.13
2022-08-03T23:28:42.054Z,98651.75
2022-08-03T23:31:09.002Z,98651.03
2022-08-03T23:33:38.938Z,98648.69
2022-08-03T23:36:20.205Z,98656.38
2022-08-03T23:38:54.415Z,98662.13
2022-08-03T23:41:21.991Z,98654.97
2022-08-03T23:43:52.001Z,98661.78
2022-08-03T23:46:23.901Z,98656.38
2022-08-03T23:48:51.020Z,98651.06
2022-08-03T23:51:46.569Z,98658.06
2022-08-03T23:54:34.850Z,98649.03
2022-08-03T23:57:29.711Z,98649.59
